Terminal Aerodrome Forecast
Issued by NWS

Home | Current Version | Previous Version | Graphics & Text | Print | Product List | Glossary On
Versions: 1 2 3 4 5 6 7 8 9 10 11 12 13 14 15 16 17 18 19 20 21
000
FTUS43 KGRB 262341
TAFCWA
TAF
KCWA 262341Z 2700/2724 02006KT 6SM -SHRA BR BKN025 OVC050
      TEMPO 2700/2703 2SM RA BR BKN008 BKN015
     FM270300 28010G17KT 5SM -RA BR BKN012 OVC025
      TEMPO 2706/2710 2SM RA BR BKN008
     FM271300 27012G20KT P6SM VCSH BKN015 BKN035
     FM271700 26010G17KT P6SM VCSH BKN035=

USA.gov is the U.S. government's official web portal to all federal, state and local government web resources and services.